createdAt,value
2022-08-14T08:01:19.815Z,56.50
2022-08-14T08:03:49.499Z,92.90
2022-08-14T08:06:17.750Z,92.20
2022-08-14T08:08:44.851Z,91.60
2022-08-14T08:11:30.088Z,90.90
2022-08-14T08:14:10.681Z,90.10
2022-08-14T08:16:47.454Z,90.10
2022-08-14T08:19:19.004Z,89.30
2022-08-14T08:21:46.854Z,88.30
2022-08-14T08:24:18.436Z,87.90
2022-08-14T08:26:46.724Z,86.70
2022-08-14T08:29:19.774Z,86.00
2022-08-14T08:31:52.514Z,87.30
2022-08-14T08:34:19.764Z,84.70
2022-08-14T08:36:50.225Z,83.90
2022-08-14T08:39:22.540Z,83.50
2022-08-14T08:41:53.191Z,81.60
2022-08-14T08:44:31.791Z,79.80
2022-08-14T08:47:05.134Z,78.60
2022-08-14T08:49:43.125Z,76.90
2022-08-14T08:52:25.222Z,75.70
2022-08-14T08:54:57.939Z,71.70
2022-08-14T08:57:25.463Z,70.60
2022-08-14T08:59:55.011Z,68.80
2022-08-14T09:02:22.592Z,71.00
2022-08-14T09:04:53.944Z,70.90
2022-08-14T09:07:31.162Z,70.00
2022-08-14T09:10:00.018Z,68.40
2022-08-14T09:12:32.289Z,67.00
2022-08-14T09:15:01.722Z,66.60
2022-08-14T09:17:28.382Z,65.70
2022-08-14T09:19:55.757Z,64.00
2022-08-14T09:22:35.018Z,61.70
2022-08-14T09:25:07.356Z,61.30
2022-08-14T09:27:35.545Z,61.80
2022-08-14T09:30:31.542Z,61.80
2022-08-14T09:32:59.283Z,60.90
2022-08-14T09:35:45.487Z,57.80
2022-08-14T09:38:47.910Z,55.40
2022-08-14T09:42:21.298Z,53.20
2022-08-14T09:45:18.787Z,51.90
2022-08-14T09:47:53.357Z,50.50
2022-08-14T09:50:26.164Z,49.80
2022-08-14T09:53:04.531Z,49.20
2022-08-14T09:55:42.358Z,49.00
2022-08-14T09:58:19.441Z,48.30
2022-08-14T10:00:57.326Z,48.40
2022-08-14T10:03:28.663Z,47.50
2022-08-14T10:06:08.672Z,46.30
2022-08-14T10:08:50.679Z,45.80
2022-08-14T10:11:24.660Z,46.60
2022-08-14T10:14:29.554Z,46.10
2022-08-14T10:17:04.680Z,48.30
2022-08-14T10:19:35.395Z,47.80
2022-08-14T10:23:13.328Z,47.80
2022-08-14T10:24:57.094Z,44.80
2022-08-14T10:27:24.941Z,44.90
2022-08-14T10:29:59.744Z,46.60
2022-08-14T10:35:13.445Z,45.70
2022-08-14T10:50:38.536Z,44.20
2022-08-14T10:53:07.968Z,43.00
2022-08-14T10:55:39.314Z,44.90
2022-08-14T10:58:11.908Z,45.00
2022-08-14T11:03:20.049Z,45.20
2022-08-14T11:08:33.331Z,44.90
2022-08-14T11:13:30.055Z,42.80
2022-08-14T11:16:00.483Z,41.20
2022-08-14T11:18:32.258Z,43.20
2022-08-14T11:21:03.543Z,43.50
2022-08-14T11:23:37.758Z,44.10
2022-08-14T11:28:47.302Z,43.60
2022-08-14T11:31:23.270Z,42.60
2022-08-14T11:33:59.388Z,42.00
2022-08-14T11:36:57.264Z,42.70
2022-08-14T11:39:33.819Z,43.60
2022-08-14T11:42:55.491Z,45.00
2022-08-14T11:44:53.872Z,46.00
2022-08-14T11:47:24.697Z,46.80
2022-08-14T11:49:51.830Z,46.40
2022-08-14T11:52:19.300Z,44.90
2022-08-14T11:54:57.295Z,43.10
2022-08-14T11:57:23.938Z,43.40
2022-08-14T12:00:00.903Z,45.20
2022-08-14T12:03:00.324Z,46.10
2022-08-14T12:05:14.555Z,45.70
2022-08-14T12:07:53.237Z,46.70
2022-08-14T12:10:27.193Z,47.30
2022-08-14T12:13:27.406Z,45.80
2022-08-14T12:16:00.216Z,44.90
2022-08-14T12:18:37.559Z,46.00
2022-08-14T12:21:19.346Z,46.10
2022-08-14T12:23:47.551Z,46.20
2022-08-14T12:26:39.651Z,45.90
2022-08-14T12:29:16.517Z,46.00
2022-08-14T12:31:46.805Z,45.00
2022-08-14T12:34:15.229Z,45.40
2022-08-14T12:36:47.586Z,45.20
2022-08-14T12:39:23.891Z,44.80
2022-08-14T12:41:57.374Z,43.60
2022-08-14T12:44:34.930Z,43.40
2022-08-14T12:47:06.123Z,42.50
2022-08-14T12:49:34.053Z,42.20
2022-08-14T12:52:02.158Z,42.90
2022-08-14T12:54:32.090Z,43.20
2022-08-14T12:57:14.641Z,42.80
2022-08-14T12:59:45.628Z,43.40
2022-08-14T13:02:26.364Z,42.80
2022-08-14T13:04:55.496Z,43.60
2022-08-14T13:07:22.172Z,43.30
2022-08-14T13:09:55.315Z,43.20
2022-08-14T13:12:32.690Z,43.90
2022-08-14T13:15:09.039Z,42.10
2022-08-14T13:17:44.623Z,42.10
2022-08-14T13:20:23.134Z,42.40
2022-08-14T13:22:52.190Z,42.80
2022-08-14T13:25:21.062Z,43.30
2022-08-14T13:27:50.057Z,42.30
2022-08-14T13:30:24.178Z,40.70
2022-08-14T13:32:52.349Z,40.80
2022-08-14T13:35:19.698Z,41.20
2022-08-14T13:37:49.856Z,41.60
2022-08-14T13:40:20.071Z,40.50
2022-08-14T13:52:53.245Z,40.90
2022-08-14T13:55:25.756Z,41.10
2022-08-14T13:58:04.082Z,40.60
2022-08-14T14:03:21.944Z,40.80
2022-08-14T14:05:55.056Z,39.50
2022-08-14T14:08:45.796Z,40.70
2022-08-14T14:11:16.361Z,40.00
2022-08-14T14:13:45.323Z,40.00
2022-08-14T14:16:15.393Z,40.70
2022-08-14T14:18:55.770Z,41.20
2022-08-14T14:21:24.614Z,40.80
2022-08-14T14:23:53.226Z,41.00
2022-08-14T14:26:23.898Z,41.20
2022-08-14T14:28:56.789Z,40.70
2022-08-14T14:36:27.994Z,40.80
2022-08-14T14:39:02.515Z,40.50
2022-08-14T14:41:37.860Z,40.10
2022-08-14T14:46:37.272Z,39.40
2022-08-14T14:49:06.600Z,37.70
2022-08-14T14:51:34.641Z,37.20
2022-08-14T14:54:02.214Z,36.60
2022-08-14T14:56:50.193Z,36.20
2022-08-14T14:59:19.258Z,36.10
2022-08-14T15:09:18.161Z,35.80
2022-08-14T15:29:21.058Z,36.00
2022-08-14T15:31:47.962Z,33.70
2022-08-14T15:37:03.253Z,35.40
2022-08-14T15:39:34.000Z,37.70
2022-08-14T15:42:04.239Z,38.70
2022-08-14T15:44:44.842Z,39.30
2022-08-14T15:47:28.099Z,38.60
2022-08-14T15:49:59.516Z,39.00
2022-08-14T15:52:33.129Z,38.50
2022-08-14T15:55:07.975Z,38.80
2022-08-14T16:00:34.054Z,39.10
2022-08-14T16:03:11.549Z,40.50
2022-08-14T16:05:38.898Z,41.00
2022-08-14T16:08:28.853Z,41.00
2022-08-14T16:10:54.532Z,40.30
2022-08-14T16:13:39.511Z,39.90
2022-08-14T16:16:47.516Z,38.70
2022-08-14T16:19:00.832Z,38.90
2022-08-14T16:21:31.646Z,39.10
2022-08-14T16:23:59.573Z,39.20
2022-08-14T16:26:30.067Z,39.60
2022-08-14T16:31:35.716Z,39.50
2022-08-14T16:34:44.291Z,39.80
2022-08-14T16:36:53.958Z,40.90
2022-08-14T16:39:21.239Z,41.50
2022-08-14T16:41:52.165Z,41.50
2022-08-14T16:44:31.392Z,41.70
2022-08-14T16:46:59.766Z,43.30
2022-08-14T16:50:03.176Z,43.30
2022-08-14T16:52:25.017Z,43.80
2022-08-14T16:54:52.051Z,44.80
2022-08-14T16:57:24.299Z,45.00
2022-08-14T16:59:57.820Z,45.80
2022-08-14T17:02:37.003Z,46.80
2022-08-14T17:05:21.818Z,46.90
2022-08-14T17:08:32.343Z,47.30
2022-08-14T17:11:09.865Z,47.00
2022-08-14T17:13:48.012Z,47.70
2022-08-14T17:16:26.088Z,48.00
2022-08-14T17:19:03.664Z,49.20
2022-08-14T17:21:41.654Z,49.10
2022-08-14T17:24:55.769Z,50.20
2022-08-14T17:27:00.098Z,51.20
2022-08-14T17:29:31.823Z,51.70
2022-08-14T17:32:03.559Z,52.20
2022-08-14T17:35:04.288Z,52.00
2022-08-14T17:37:45.848Z,52.80
2022-08-14T17:40:18.906Z,53.50
2022-08-14T17:42:51.800Z,52.60
2022-08-14T17:45:41.229Z,52.80
2022-08-14T17:49:10.133Z,52.90
2022-08-14T17:51:23.397Z,53.10
2022-08-14T17:53:53.331Z,53.70
2022-08-14T17:56:28.954Z,54.10
2022-08-14T17:59:02.159Z,55.00
2022-08-14T18:01:31.017Z,56.50
2022-08-14T18:03:58.764Z,57.10
2022-08-14T18:06:38.780Z,57.80
2022-08-14T18:09:25.103Z,59.00
2022-08-14T18:11:54.407Z,59.30
2022-08-14T18:14:31.668Z,59.20
2022-08-14T18:17:00.813Z,60.10
2022-08-14T18:19:28.843Z,60.30
2022-08-14T18:21:57.916Z,61.40
2022-08-14T18:24:29.624Z,61.20
2022-08-14T18:27:12.467Z,62.30
2022-08-14T18:29:56.259Z,63.50
2022-08-14T18:32:27.743Z,64.10
2022-08-14T18:35:01.269Z,64.80
2022-08-14T18:37:30.880Z,65.30
2022-08-14T18:40:17.690Z,65.70
2022-08-14T18:42:47.556Z,66.10
2022-08-14T18:45:28.975Z,66.40
2022-08-14T18:48:18.532Z,67.20
2022-08-14T18:51:02.456Z,67.80
2022-08-14T18:53:34.332Z,67.90
2022-08-14T18:56:09.805Z,68.70
2022-08-14T18:58:56.823Z,68.50
2022-08-14T19:01:29.832Z,68.60
2022-08-14T19:03:58.079Z,71.10
2022-08-14T19:06:41.734Z,70.50
2022-08-14T19:09:34.486Z,70.30
2022-08-14T19:12:01.136Z,69.80
2022-08-14T19:14:43.918Z,69.10
2022-08-14T19:17:41.748Z,68.70
2022-08-14T19:20:09.275Z,68.70
2022-08-14T19:22:37.535Z,68.90
2022-08-14T19:25:05.806Z,69.20
2022-08-14T19:27:37.665Z,69.70
2022-08-14T19:30:20.259Z,70.00
2022-08-14T19:32:51.716Z,70.40
2022-08-14T19:35:23.438Z,71.60
2022-08-14T19:37:56.109Z,72.20
2022-08-14T19:40:39.923Z,72.10
2022-08-14T19:43:09.225Z,72.60
2022-08-14T19:45:37.283Z,73.60
2022-08-14T19:48:09.951Z,74.70
2022-08-14T19:50:41.215Z,74.50
2022-08-14T19:53:17.146Z,74.90
2022-08-14T19:55:54.515Z,75.60
2022-08-14T19:58:30.047Z,76.00
2022-08-14T20:00:58.009Z,75.70
2022-08-14T20:03:24.985Z,76.00
2022-08-14T20:06:05.411Z,76.50
2022-08-14T20:10:59.613Z,76.80
2022-08-14T20:12:02.181Z,77.30
2022-08-14T20:14:28.004Z,78.20
2022-08-14T20:17:03.180Z,78.90
2022-08-14T20:19:33.747Z,79.70
2022-08-14T20:22:35.118Z,80.10
2022-08-14T20:24:54.406Z,80.60
2022-08-14T20:27:33.379Z,80.90
2022-08-14T20:30:34.143Z,81.30
2022-08-14T20:33:00.134Z,81.90
2022-08-14T20:35:35.287Z,82.50
2022-08-14T20:38:29.052Z,83.10
2022-08-14T20:40:58.384Z,83.90
2022-08-14T20:43:45.420Z,84.10
2022-08-14T20:46:33.689Z,85.00
2022-08-14T20:49:16.958Z,85.50
2022-08-14T20:51:58.680Z,86.20
2022-08-14T20:54:34.427Z,86.90
2022-08-14T20:57:10.062Z,88.30
2022-08-14T20:59:43.306Z,89.30
2022-08-14T21:02:38.734Z,90.30
2022-08-14T21:05:19.789Z,91.00
2022-08-14T21:07:51.420Z,91.80
2022-08-14T21:10:33.367Z,92.50
2022-08-14T21:13:25.873Z,93.60
2022-08-14T21:15:57.635Z,94.40
2022-08-14T21:18:28.627Z,95.40
2022-08-14T21:20:56.292Z,96.20
2022-08-14T21:23:23.167Z,97.20
2022-08-14T21:25:49.963Z,98.10
2022-08-14T21:28:30.534Z,99.00
2022-08-14T21:31:02.606Z,99.90
2022-08-14T21:33:29.247Z,99.90
2022-08-14T21:35:57.193Z,99.90
2022-08-14T21:38:33.818Z,99.90
2022-08-14T21:41:49.975Z,99.90
2022-08-14T21:44:17.441Z,99.90
2022-08-14T21:46:47.808Z,99.90
2022-08-14T21:49:16.686Z,99.90
2022-08-14T21:51:55.227Z,99.90
2022-08-14T21:54:49.093Z,99.90
2022-08-14T21:57:20.846Z,99.90
2022-08-14T22:00:34.887Z,99.90
2022-08-14T22:03:00.621Z,99.90
2022-08-14T22:05:29.546Z,99.90
2022-08-14T22:07:56.899Z,99.90
2022-08-14T22:10:24.314Z,99.90
2022-08-14T22:13:00.268Z,99.90
2022-08-14T22:15:28.296Z,99.90
2022-08-14T22:17:55.299Z,99.90
2022-08-14T22:20:22.854Z,99.90
2022-08-14T22:22:56.077Z,99.90
2022-08-14T22:25:34.075Z,99.90
2022-08-14T22:28:09.880Z,99.90
2022-08-14T22:30:36.988Z,99.90
2022-08-14T22:33:05.677Z,99.90
2022-08-14T22:35:32.814Z,99.90
2022-08-14T22:38:34.898Z,99.90
2022-08-14T22:41:03.356Z,99.90
2022-08-14T22:43:36.095Z,99.90
2022-08-14T22:46:06.307Z,99.90
2022-08-14T22:48:42.249Z,99.90
2022-08-14T22:51:08.947Z,99.90
2022-08-14T22:53:40.161Z,99.90
2022-08-14T22:56:20.606Z,99.90
2022-08-14T22:58:49.864Z,99.90
2022-08-14T23:01:24.083Z,99.90
2022-08-14T23:04:10.749Z,99.90
2022-08-14T23:07:02.019Z,99.90
2022-08-14T23:09:35.237Z,99.90
2022-08-14T23:12:06.313Z,99.90
2022-08-14T23:14:53.037Z,99.90
2022-08-14T23:17:22.399Z,99.90
2022-08-14T23:19:49.034Z,99.90
2022-08-14T23:22:24.263Z,99.90
2022-08-14T23:24:53.310Z,99.90
2022-08-14T23:27:31.626Z,99.90
2022-08-14T23:30:31.556Z,99.90
2022-08-14T23:33:01.836Z,99.90
2022-08-14T23:35:28.821Z,99.90
2022-08-14T23:38:01.795Z,99.90
2022-08-14T23:40:30.139Z,99.90
2022-08-14T23:43:11.334Z,99.90
2022-08-14T23:45:47.159Z,99.90
2022-08-14T23:48:20.694Z,99.90
2022-08-14T23:50:51.119Z,99.90
2022-08-14T23:53:28.358Z,99.90
2022-08-14T23:56:12.176Z,99.90
2022-08-14T23:58:39.095Z,99.90
